sensor_id;sensor_type;location;lat;lon;timestamp;temperature;humidity
34989;DHT22;21192;40.182;44.516;2023-04-01T00:01:00;6.40;99.90
34989;DHT22;21192;40.182;44.516;2023-04-01T00:03:28;6.30;99.90
34989;DHT22;21192;40.182;44.516;2023-04-01T00:05:55;6.30;99.90
34989;DHT22;21192;40.182;44.516;2023-04-01T00:08:22;6.30;99.90
34989;DHT22;21192;40.182;44.516;2023-04-01T00:10:48;6.40;99.90
34989;DHT22;21192;40.182;44.516;2023-04-01T00:13:14;6.30;99.90
34989;DHT22;21192;40.182;44.516;2023-04-01T00:15:41;6.30;99.90
34989;DHT22;21192;40.182;44.516;2023-04-01T00:18:07;6.40;99.90
34989;DHT22;21192;40.182;44.516;2023-04-01T00:20:34;6.30;99.90
34989;DHT22;21192;40.182;44.516;2023-04-01T00:23:00;6.20;99.90
34989;DHT22;21192;40.182;44.516;2023-04-01T00:25:26;6.10;99.90
34989;DHT22;21192;40.182;44.516;2023-04-01T00:27:52;6.20;99.90
34989;DHT22;21192;40.182;44.516;2023-04-01T00:30:18;6.30;99.90
34989;DHT22;21192;40.182;44.516;2023-04-01T00:32:44;6.40;99.90
34989;DHT22;21192;40.182;44.516;2023-04-01T00:35:11;6.30;99.90
34989;DHT22;21192;40.182;44.516;2023-04-01T00:37:38;6.10;99.90
34989;DHT22;21192;40.182;44.516;2023-04-01T00:40:06;5.90;99.90
34989;DHT22;21192;40.182;44.516;2023-04-01T00:42:32;5.80;99.90
34989;DHT22;21192;40.182;44.516;2023-04-01T00:44:59;5.80;99.90
34989;DHT22;21192;40.182;44.516;2023-04-01T00:47:44;5.60;99.90
34989;DHT22;21192;40.182;44.516;2023-04-01T00:50:10;5.60;99.90
34989;DHT22;21192;40.182;44.516;2023-04-01T00:52:36;5.70;99.90
34989;DHT22;21192;40.182;44.516;2023-04-01T00:55:05;5.70;99.90
34989;DHT22;21192;40.182;44.516;2023-04-01T00:57:37;5.80;99.90
34989;DHT22;21192;40.182;44.516;2023-04-01T01:00:07;5.90;99.90
34989;DHT22;21192;40.182;44.516;2023-04-01T01:02:35;5.90;99.90
34989;DHT22;21192;40.182;44.516;2023-04-01T01:05:01;5.90;99.90
34989;DHT22;21192;40.182;44.516;2023-04-01T01:07:45;6.00;99.90
34989;DHT22;21192;40.182;44.516;2023-04-01T01:10:31;6.10;99.90
34989;DHT22;21192;40.182;44.516;2023-04-01T01:37:16;6.40;99.90
34989;DHT22;21192;40.182;44.516;2023-04-01T01:39:46;6.40;99.90
34989;DHT22;21192;40.182;44.516;2023-04-01T01:42:15;6.30;99.90
34989;DHT22;21192;40.182;44.516;2023-04-01T01:44:44;6.30;99.90
34989;DHT22;21192;40.182;44.516;2023-04-01T01:47:13;6.20;99.90
34989;DHT22;21192;40.182;44.516;2023-04-01T01:49:41;5.90;99.90
34989;DHT22;21192;40.182;44.516;2023-04-01T01:52:07;5.70;99.90
34989;DHT22;21192;40.182;44.516;2023-04-01T01:54:33;5.70;99.90
34989;DHT22;21192;40.182;44.516;2023-04-01T01:57:07;5.80;99.90
34989;DHT22;21192;40.182;44.516;2023-04-01T01:59:38;5.90;99.90
34989;DHT22;21192;40.182;44.516;2023-04-01T02:02:06;5.80;99.90
34989;DHT22;21192;40.182;44.516;2023-04-01T02:04:40;5.50;99.90
34989;DHT22;21192;40.182;44.516;2023-04-01T02:07:12;5.50;99.90
34989;DHT22;21192;40.182;44.516;2023-04-01T02:09:40;5.50;99.90
34989;DHT22;21192;40.182;44.516;2023-04-01T02:12:08;5.60;99.90
34989;DHT22;21192;40.182;44.516;2023-04-01T02:17:10;5.50;99.90
34989;DHT22;21192;40.182;44.516;2023-04-01T02:19:50;5.50;99.90
34989;DHT22;21192;40.182;44.516;2023-04-01T02:22:24;5.50;99.90
34989;DHT22;21192;40.182;44.516;2023-04-01T02:24:57;5.60;99.90
34989;DHT22;21192;40.182;44.516;2023-04-01T02:27:24;5.60;99.90
34989;DHT22;21192;40.182;44.516;2023-04-01T02:29:50;5.80;99.90
34989;DHT22;21192;40.182;44.516;2023-04-01T02:32:18;5.80;99.90
34989;DHT22;21192;40.182;44.516;2023-04-01T02:34:45;5.80;99.90
34989;DHT22;21192;40.182;44.516;2023-04-01T02:37:13;5.80;99.90
34989;DHT22;21192;40.182;44.516;2023-04-01T02:39:39;5.70;99.90
34989;DHT22;21192;40.182;44.516;2023-04-01T02:42:05;5.80;99.90
34989;DHT22;21192;40.182;44.516;2023-04-01T02:44:31;6.00;99.90
34989;DHT22;21192;40.182;44.516;2023-04-01T02:46:57;6.00;99.90
34989;DHT22;21192;40.182;44.516;2023-04-01T02:49:23;6.00;99.90
34989;DHT22;21192;40.182;44.516;2023-04-01T02:51:48;6.10;99.90
34989;DHT22;21192;40.182;44.516;2023-04-01T02:54:14;6.10;99.90
34989;DHT22;21192;40.182;44.516;2023-04-01T02:56:40;6.10;99.90
34989;DHT22;21192;40.182;44.516;2023-04-01T02:59:06;6.10;99.90
34989;DHT22;21192;40.182;44.516;2023-04-01T03:01:32;6.00;99.90
34989;DHT22;21192;40.182;44.516;2023-04-01T03:03:58;6.20;99.90
34989;DHT22;21192;40.182;44.516;2023-04-01T03:06:24;6.20;99.90
34989;DHT22;21192;40.182;44.516;2023-04-01T03:08:50;6.30;99.90
34989;DHT22;21192;40.182;44.516;2023-04-01T03:11:15;6.40;99.90
34989;DHT22;21192;40.182;44.516;2023-04-01T03:13:41;6.40;99.90
34989;DHT22;21192;40.182;44.516;2023-04-01T03:16:07;6.40;99.90
34989;DHT22;21192;40.182;44.516;2023-04-01T03:18:33;6.30;99.90
34989;DHT22;21192;40.182;44.516;2023-04-01T03:21:13;6.30;99.90
34989;DHT22;21192;40.182;44.516;2023-04-01T03:23:40;6.30;99.90
34989;DHT22;21192;40.182;44.516;2023-04-01T03:26:05;6.20;99.90
34989;DHT22;21192;40.182;44.516;2023-04-01T03:28:31;6.30;99.90
34989;DHT22;21192;40.182;44.516;2023-04-01T03:30:57;6.40;99.90
34989;DHT22;21192;40.182;44.516;2023-04-01T03:33:23;6.50;99.90
34989;DHT22;21192;40.182;44.516;2023-04-01T03:35:49;6.60;99.90
34989;DHT22;21192;40.182;44.516;2023-04-01T03:38:17;6.80;99.90
34989;DHT22;21192;40.182;44.516;2023-04-01T03:40:44;6.90;99.90
34989;DHT22;21192;40.182;44.516;2023-04-01T03:43:10;7.20;99.90
34989;DHT22;21192;40.182;44.516;2023-04-01T03:45:46;7.40;99.90
34989;DHT22;21192;40.182;44.516;2023-04-01T03:48:13;7.70;99.90
34989;DHT22;21192;40.182;44.516;2023-04-01T03:50:39;7.80;99.90
34989;DHT22;21192;40.182;44.516;2023-04-01T03:53:05;8.00;99.90
34989;DHT22;21192;40.182;44.516;2023-04-01T03:55:31;8.00;99.90
34989;DHT22;21192;40.182;44.516;2023-04-01T03:57:57;8.20;99.90
34989;DHT22;21192;40.182;44.516;2023-04-01T04:00:23;8.20;99.90
34989;DHT22;21192;40.182;44.516;2023-04-01T04:02:48;8.30;99.90
34989;DHT22;21192;40.182;44.516;2023-04-01T04:05:14;8.30;99.90
34989;DHT22;21192;40.182;44.516;2023-04-01T04:07:40;8.20;99.90
34989;DHT22;21192;40.182;44.516;2023-04-01T04:10:07;8.20;99.90
34989;DHT22;21192;40.182;44.516;2023-04-01T04:12:33;8.10;99.90
34989;DHT22;21192;40.182;44.516;2023-04-01T04:14:58;7.80;99.90
34989;DHT22;21192;40.182;44.516;2023-04-01T04:17:24;7.80;99.90
34989;DHT22;21192;40.182;44.516;2023-04-01T04:19:50;7.90;99.90
34989;DHT22;21192;40.182;44.516;2023-04-01T04:22:16;8.00;99.90
34989;DHT22;21192;40.182;44.516;2023-04-01T04:24:41;8.10;99.90
34989;DHT22;21192;40.182;44.516;2023-04-01T04:27:07;8.20;99.90
34989;DHT22;21192;40.182;44.516;2023-04-01T04:29:33;8.20;99.90
34989;DHT22;21192;40.182;44.516;2023-04-01T04:31:59;8.10;99.90
34989;DHT22;21192;40.182;44.516;2023-04-01T04:34:25;8.00;99.90
34989;DHT22;21192;40.182;44.516;2023-04-01T04:36:51;8.10;99.90
34989;DHT22;21192;40.182;44.516;2023-04-01T04:39:17;8.20;99.90
34989;DHT22;21192;40.182;44.516;2023-04-01T04:41:43;8.30;99.90
34989;DHT22;21192;40.182;44.516;2023-04-01T04:44:09;8.40;99.90
34989;DHT22;21192;40.182;44.516;2023-04-01T04:46:34;8.30;99.90
34989;DHT22;21192;40.182;44.516;2023-04-01T04:49:02;8.20;99.90
34989;DHT22;21192;40.182;44.516;2023-04-01T04:51:28;8.20;99.90
34989;DHT22;21192;40.182;44.516;2023-04-01T04:53:54;8.20;99.90
34989;DHT22;21192;40.182;44.516;2023-04-01T04:56:21;8.10;99.90
34989;DHT22;21192;40.182;44.516;2023-04-01T04:58:47;8.10;99.90
34989;DHT22;21192;40.182;44.516;2023-04-01T05:01:15;8.20;99.90
34989;DHT22;21192;40.182;44.516;2023-04-01T05:03:41;8.00;99.90
34989;DHT22;21192;40.182;44.516;2023-04-01T05:06:09;8.20;99.90
34989;DHT22;21192;40.182;44.516;2023-04-01T05:08:36;8.10;99.90
34989;DHT22;21192;40.182;44.516;2023-04-01T05:11:02;8.00;99.90
34989;DHT22;21192;40.182;44.516;2023-04-01T05:13:29;7.90;99.90
34989;DHT22;21192;40.182;44.516;2023-04-01T05:15:54;7.90;99.90
34989;DHT22;21192;40.182;44.516;2023-04-01T05:18:21;7.80;99.90
34989;DHT22;21192;40.182;44.516;2023-04-01T05:20:48;7.70;99.90
34989;DHT22;21192;40.182;44.516;2023-04-01T05:23:15;7.50;99.90
34989;DHT22;21192;40.182;44.516;2023-04-01T05:25:41;7.30;99.90
34989;DHT22;21192;40.182;44.516;2023-04-01T05:28:08;7.20;99.90
34989;DHT22;21192;40.182;44.516;2023-04-01T05:30:34;7.20;99.90
34989;DHT22;21192;40.182;44.516;2023-04-01T05:33:00;7.20;99.90
34989;DHT22;21192;40.182;44.516;2023-04-01T05:35:25;7.30;99.90
34989;DHT22;21192;40.182;44.516;2023-04-01T05:37:51;7.40;99.90
34989;DHT22;21192;40.182;44.516;2023-04-01T05:40:17;7.40;99.90
34989;DHT22;21192;40.182;44.516;2023-04-01T05:42:43;7.30;99.90
34989;DHT22;21192;40.182;44.516;2023-04-01T05:45:09;7.10;99.90
34989;DHT22;21192;40.182;44.516;2023-04-01T05:47:35;7.10;99.90
34989;DHT22;21192;40.182;44.516;2023-04-01T05:50:01;7.20;99.90
34989;DHT22;21192;40.182;44.516;2023-04-01T05:52:27;7.20;99.90
34989;DHT22;21192;40.182;44.516;2023-04-01T05:54:52;7.20;99.90
34989;DHT22;21192;40.182;44.516;2023-04-01T05:57:18;7.30;99.90
34989;DHT22;21192;40.182;44.516;2023-04-01T05:59:44;7.10;99.90
34989;DHT22;21192;40.182;44.516;2023-04-01T06:02:11;7.20;99.90
34989;DHT22;21192;40.182;44.516;2023-04-01T06:04:40;7.20;99.90
34989;DHT22;21192;40.182;44.516;2023-04-01T06:07:14;7.20;99.90
34989;DHT22;21192;40.182;44.516;2023-04-01T06:09:40;7.20;99.90
34989;DHT22;21192;40.182;44.516;2023-04-01T06:15:41;7.10;99.90
34989;DHT22;21192;40.182;44.516;2023-04-01T06:38:57;7.10;99.90
34989;DHT22;21192;40.182;44.516;2023-04-01T06:42:01;7.00;99.90
34989;DHT22;21192;40.182;44.516;2023-04-01T06:53:15;6.90;99.90
34989;DHT22;21192;40.182;44.516;2023-04-01T06:55:47;6.90;99.90
34989;DHT22;21192;40.182;44.516;2023-04-01T06:58:29;6.80;99.90
34989;DHT22;21192;40.182;44.516;2023-04-01T07:01:03;6.80;99.90
34989;DHT22;21192;40.182;44.516;2023-04-01T07:06:25;6.80;99.90
34989;DHT22;21192;40.182;44.516;2023-04-01T07:08:54;6.80;99.90
34989;DHT22;21192;40.182;44.516;2023-04-01T07:11:32;6.90;99.90
34989;DHT22;21192;40.182;44.516;2023-04-01T07:17:10;7.30;99.90
34989;DHT22;21192;40.182;44.516;2023-04-01T07:19:56;7.60;99.90
34989;DHT22;21192;40.182;44.516;2023-04-01T07:22:54;7.80;99.90
34989;DHT22;21192;40.182;44.516;2023-04-01T07:25:24;8.00;99.90
34989;DHT22;21192;40.182;44.516;2023-04-01T07:27:53;8.20;99.90
34989;DHT22;21192;40.182;44.516;2023-04-01T07:30:23;8.50;99.90
34989;DHT22;21192;40.182;44.516;2023-04-01T07:35:44;8.80;99.90
34989;DHT22;21192;40.182;44.516;2023-04-01T07:38:20;8.80;99.30
34989;DHT22;21192;40.182;44.516;2023-04-01T07:41:15;8.90;99.20
34989;DHT22;21192;40.182;44.516;2023-04-01T07:43:58;8.90;98.80
34989;DHT22;21192;40.182;44.516;2023-04-01T07:46:53;9.20;98.30
34989;DHT22;21192;40.182;44.516;2023-04-01T07:52:12;9.30;96.70
34989;DHT22;21192;40.182;44.516;2023-04-01T07:57:41;9.30;95.90
34989;DHT22;21192;40.182;44.516;2023-04-01T08:13:49;9.70;93.90
34989;DHT22;21192;40.182;44.516;2023-04-01T08:16:50;9.70;93.80
34989;DHT22;21192;40.182;44.516;2023-04-01T08:19:40;9.90;93.80
34989;DHT22;21192;40.182;44.516;2023-04-01T08:22:16;10.20;93.30
34989;DHT22;21192;40.182;44.516;2023-04-01T08:24:46;10.50;92.40
34989;DHT22;21192;40.182;44.516;2023-04-01T08:30:49;10.30;91.90
34989;DHT22;21192;40.182;44.516;2023-04-01T08:32:59;10.50;91.90
34989;DHT22;21192;40.182;44.516;2023-04-01T08:35:33;10.60;91.70
34989;DHT22;21192;40.182;44.516;2023-04-01T08:38:12;10.70;90.90
34989;DHT22;21192;40.182;44.516;2023-04-01T08:40:58;10.70;90.20
34989;DHT22;21192;40.182;44.516;2023-04-01T08:46:35;11.10;87.20
34989;DHT22;21192;40.182;44.516;2023-04-01T08:49:10;11.00;86.20
34989;DHT22;21192;40.182;44.516;2023-04-01T08:52:05;11.00;86.20
34989;DHT22;21192;40.182;44.516;2023-04-01T08:54:46;10.90;85.50
34989;DHT22;21192;40.182;44.516;2023-04-01T09:00:22;11.00;86.40
34989;DHT22;21192;40.182;44.516;2023-04-01T09:09:21;10.80;85.90
34989;DHT22;21192;40.182;44.516;2023-04-01T09:17:41;10.80;86.30
34989;DHT22;21192;40.182;44.516;2023-04-01T09:20:27;10.50;86.20
34989;DHT22;21192;40.182;44.516;2023-04-01T09:26:22;10.70;86.10
34989;DHT22;21192;40.182;44.516;2023-04-01T09:34:18;10.70;85.80
34989;DHT22;21192;40.182;44.516;2023-04-01T09:37:01;10.60;86.00
34989;DHT22;21192;40.182;44.516;2023-04-01T09:39:40;10.50;86.70
34989;DHT22;21192;40.182;44.516;2023-04-01T09:44:58;10.30;88.00
34989;DHT22;21192;40.182;44.516;2023-04-01T09:53:09;10.00;90.80
34989;DHT22;21192;40.182;44.516;2023-04-01T10:18:36;9.20;95.10
34989;DHT22;21192;40.182;44.516;2023-04-01T10:32:38;9.40;96.20
34989;DHT22;21192;40.182;44.516;2023-04-01T10:51:35;9.30;97.60
34989;DHT22;21192;40.182;44.516;2023-04-01T11:06:11;9.20;98.20
34989;DHT22;21192;40.182;44.516;2023-04-01T11:23:27;9.00;99.90
34989;DHT22;21192;40.182;44.516;2023-04-01T11:36:51;8.60;99.90
34989;DHT22;21192;40.182;44.516;2023-04-01T11:39:44;8.90;99.90
34989;DHT22;21192;40.182;44.516;2023-04-01T11:42:35;9.00;99.90
34989;DHT22;21192;40.182;44.516;2023-04-01T11:48:07;8.90;99.90
34989;DHT22;21192;40.182;44.516;2023-04-01T11:56:07;8.60;99.90
34989;DHT22;21192;40.182;44.516;2023-04-01T12:07:11;9.50;99.90
34989;DHT22;21192;40.182;44.516;2023-04-01T12:12:20;9.50;99.90
34989;DHT22;21192;40.182;44.516;2023-04-01T12:15:13;9.70;99.90
34989;DHT22;21192;40.182;44.516;2023-04-01T12:17:51;9.80;99.90
34989;DHT22;21192;40.182;44.516;2023-04-01T12:32:25;9.60;99.90
34989;DHT22;21192;40.182;44.516;2023-04-01T12:37:45;9.70;99.80
34989;DHT22;21192;40.182;44.516;2023-04-01T12:54:16;10.20;98.20
34989;DHT22;21192;40.182;44.516;2023-04-01T13:02:25;10.30;97.40
34989;DHT22;21192;40.182;44.516;2023-04-01T13:05:09;10.40;97.30
34989;DHT22;21192;40.182;44.516;2023-04-01T13:21:13;10.60;96.30
34989;DHT22;21192;40.182;44.516;2023-04-01T13:24:08;10.50;96.20
34989;DHT22;21192;40.182;44.516;2023-04-01T13:27:02;10.40;96.20
34989;DHT22;21192;40.182;44.516;2023-04-01T13:29:38;10.50;96.30
34989;DHT22;21192;40.182;44.516;2023-04-01T13:35:16;10.50;96.20
34989;DHT22;21192;40.182;44.516;2023-04-01T13:43:04;10.50;96.10
34989;DHT22;21192;40.182;44.516;2023-04-01T13:46:16;10.20;96.40
34989;DHT22;21192;40.182;44.516;2023-04-01T14:00:19;10.20;96.50
34989;DHT22;21192;40.182;44.516;2023-04-01T14:14:18;9.90;97.20
34989;DHT22;21192;40.182;44.516;2023-04-01T14:17:06;9.90;97.30
34989;DHT22;21192;40.182;44.516;2023-04-01T14:22:46;9.80;97.40
34989;DHT22;21192;40.182;44.516;2023-04-01T14:50:51;9.80;97.90
34989;DHT22;21192;40.182;44.516;2023-04-01T14:55:55;9.90;97.50
34989;DHT22;21192;40.182;44.516;2023-04-01T14:58:40;10.00;97.40
34989;DHT22;21192;40.182;44.516;2023-04-01T15:09:19;9.70;98.60
34989;DHT22;21192;40.182;44.516;2023-04-01T15:26:14;9.60;99.90
34989;DHT22;21192;40.182;44.516;2023-04-01T15:34:35;9.40;99.90
34989;DHT22;21192;40.182;44.516;2023-04-01T15:37:53;9.30;99.90
34989;DHT22;21192;40.182;44.516;2023-04-01T15:55:52;8.90;99.90
34989;DHT22;21192;40.182;44.516;2023-04-01T15:59:09;8.70;99.90
34989;DHT22;21192;40.182;44.516;2023-04-01T16:04:46;8.50;99.90
34989;DHT22;21192;40.182;44.516;2023-04-01T16:18:59;8.40;99.90
34989;DHT22;21192;40.182;44.516;2023-04-01T16:21:27;8.40;99.90
34989;DHT22;21192;40.182;44.516;2023-04-01T16:24:17;8.20;99.90
34989;DHT22;21192;40.182;44.516;2023-04-01T16:26:53;8.20;99.90
34989;DHT22;21192;40.182;44.516;2023-04-01T16:43:05;8.30;99.90
34989;DHT22;21192;40.182;44.516;2023-04-01T16:45:36;8.30;99.90
34989;DHT22;21192;40.182;44.516;2023-04-01T16:48:12;8.40;99.90
34989;DHT22;21192;40.182;44.516;2023-04-01T16:50:58;8.50;99.90
34989;DHT22;21192;40.182;44.516;2023-04-01T16:53:34;8.60;99.90
34989;DHT22;21192;40.182;44.516;2023-04-01T16:56:10;8.70;99.90
34989;DHT22;21192;40.182;44.516;2023-04-01T16:58:42;8.80;99.90
34989;DHT22;21192;40.182;44.516;2023-04-01T17:01:29;8.70;99.90
34989;DHT22;21192;40.182;44.516;2023-04-01T17:04:04;8.60;99.90
34989;DHT22;21192;40.182;44.516;2023-04-01T17:12:13;8.50;99.90
34989;DHT22;21192;40.182;44.516;2023-04-01T17:20:42;8.40;99.90
34989;DHT22;21192;40.182;44.516;2023-04-01T17:26:01;8.20;99.90
34989;DHT22;21192;40.182;44.516;2023-04-01T17:42:59;8.70;99.90
34989;DHT22;21192;40.182;44.516;2023-04-01T17:48:45;8.80;99.90
34989;DHT22;21192;40.182;44.516;2023-04-01T17:51:34;8.70;99.90
34989;DHT22;21192;40.182;44.516;2023-04-01T17:54:28;8.70;99.90
34989;DHT22;21192;40.182;44.516;2023-04-01T17:59:58;8.80;99.90
34989;DHT22;21192;40.182;44.516;2023-04-01T18:05:20;8.80;99.90
34989;DHT22;21192;40.182;44.516;2023-04-01T18:13:48;8.10;99.90
34989;DHT22;21192;40.182;44.516;2023-04-01T18:24:29;7.90;99.90
34989;DHT22;21192;40.182;44.516;2023-04-01T18:29:49;8.30;99.90
34989;DHT22;21192;40.182;44.516;2023-04-01T18:32:28;8.40;99.90
34989;DHT22;21192;40.182;44.516;2023-04-01T18:40:15;8.70;99.90
34989;DHT22;21192;40.182;44.516;2023-04-01T18:54:05;8.80;99.90
34989;DHT22;21192;40.182;44.516;2023-04-01T18:56:41;8.80;99.90
34989;DHT22;21192;40.182;44.516;2023-04-01T19:04:41;8.70;99.90
34989;DHT22;21192;40.182;44.516;2023-04-01T19:07:43;8.70;99.90
34989;DHT22;21192;40.182;44.516;2023-04-01T19:18:35;8.80;99.90
34989;DHT22;21192;40.182;44.516;2023-04-01T19:31:53;9.00;99.90
34989;DHT22;21192;40.182;44.516;2023-04-01T19:37:22;9.00;99.90
34989;DHT22;21192;40.182;44.516;2023-04-01T19:40:04;9.00;99.90
34989;DHT22;21192;40.182;44.516;2023-04-01T19:57:17;9.20;99.90
34989;DHT22;21192;40.182;44.516;2023-04-01T20:03:00;9.10;99.90
34989;DHT22;21192;40.182;44.516;2023-04-01T20:08:27;9.00;99.90
34989;DHT22;21192;40.182;44.516;2023-04-01T20:11:21;9.00;99.90
34989;DHT22;21192;40.182;44.516;2023-04-01T20:16:54;9.20;99.90
34989;DHT22;21192;40.182;44.516;2023-04-01T20:19:40;9.20;99.90
34989;DHT22;21192;40.182;44.516;2023-04-01T20:27:45;9.20;99.90
34989;DHT22;21192;40.182;44.516;2023-04-01T20:33:42;9.10;99.90
34989;DHT22;21192;40.182;44.516;2023-04-01T20:39:15;9.10;99.90
34989;DHT22;21192;40.182;44.516;2023-04-01T20:53:04;8.80;99.90
34989;DHT22;21192;40.182;44.516;2023-04-01T21:06:44;8.30;99.90
34989;DHT22;21192;40.182;44.516;2023-04-01T21:18:10;7.50;99.90
34989;DHT22;21192;40.182;44.516;2023-04-01T21:23:35;7.40;99.90
34989;DHT22;21192;40.182;44.516;2023-04-01T21:29:33;7.60;99.90
34989;DHT22;21192;40.182;44.516;2023-04-01T21:32:36;7.60;99.90
34989;DHT22;21192;40.182;44.516;2023-04-01T21:38:05;7.60;99.90
34989;DHT22;21192;40.182;44.516;2023-04-01T21:41:02;7.70;99.90
34989;DHT22;21192;40.182;44.516;2023-04-01T21:52:23;7.80;99.90
34989;DHT22;21192;40.182;44.516;2023-04-01T22:16:58;8.20;99.90
34989;DHT22;21192;40.182;44.516;2023-04-01T22:27:33;8.50;99.90
34989;DHT22;21192;40.182;44.516;2023-04-01T22:30:24;8.50;99.90
34989;DHT22;21192;40.182;44.516;2023-04-01T22:38:31;8.50;99.90
34989;DHT22;21192;40.182;44.516;2023-04-01T22:41:33;8.40;99.90
34989;DHT22;21192;40.182;44.516;2023-04-01T22:44:01;8.40;99.90
34989;DHT22;21192;40.182;44.516;2023-04-01T22:46:48;8.40;99.90
34989;DHT22;21192;40.182;44.516;2023-04-01T22:51:56;8.40;99.90
34989;DHT22;21192;40.182;44.516;2023-04-01T22:54:28;8.30;99.90
34989;DHT22;21192;40.182;44.516;2023-04-01T22:57:05;8.10;99.90
34989;DHT22;21192;40.182;44.516;2023-04-01T22:59:54;7.80;99.90
34989;DHT22;21192;40.182;44.516;2023-04-01T23:02:25;7.80;99.90
34989;DHT22;21192;40.182;44.516;2023-04-01T23:04:56;7.90;99.90
34989;DHT22;21192;40.182;44.516;2023-04-01T23:08:07;8.10;99.90
34989;DHT22;21192;40.182;44.516;2023-04-01T23:11:00;8.20;99.90
34989;DHT22;21192;40.182;44.516;2023-04-01T23:16:43;8.20;99.90
34989;DHT22;21192;40.182;44.516;2023-04-01T23:19:11;8.30;99.90
34989;DHT22;21192;40.182;44.516;2023-04-01T23:21:45;8.40;99.90
34989;DHT22;21192;40.182;44.516;2023-04-01T23:26:59;8.50;99.90
34989;DHT22;21192;40.182;44.516;2023-04-01T23:29:27;8.40;99.90
34989;DHT22;21192;40.182;44.516;2023-04-01T23:32:04;8.40;99.90
34989;DHT22;21192;40.182;44.516;2023-04-01T23:34:34;8.30;99.90
34989;DHT22;21192;40.182;44.516;2023-04-01T23:37:11;8.20;99.90
34989;DHT22;21192;40.182;44.516;2023-04-01T23:39:40;8.20;99.90
34989;DHT22;21192;40.182;44.516;2023-04-01T23:42:12;8.20;99.90
34989;DHT22;21192;40.182;44.516;2023-04-01T23:44:39;8.20;99.90
34989;DHT22;21192;40.182;44.516;2023-04-01T23:47:08;8.00;99.90
34989;DHT22;21192;40.182;44.516;2023-04-01T23:49:41;8.00;99.90
34989;DHT22;21192;40.182;44.516;2023-04-01T23:55:11;8.00;99.90
34989;DHT22;21192;40.182;44.516;2023-04-01T23:57:38;7.80;99.90
